sensor_id;sensor_type;location;lat;lon;timestamp;temperature;humidity
25468;DHT22;13384;24.794;110.498;2022-11-20T00:01:56;18.80;93.50
25468;DHT22;13384;24.794;110.498;2022-11-20T00:04:27;18.80;93.80
25468;DHT22;13384;24.794;110.498;2022-11-20T00:06:58;18.80;94.10
25468;DHT22;13384;24.794;110.498;2022-11-20T00:09:29;18.80;93.60
25468;DHT22;13384;24.794;110.498;2022-11-20T00:11:59;18.80;94.30
25468;DHT22;13384;24.794;110.498;2022-11-20T00:14:30;18.80;93.90
25468;DHT22;13384;24.794;110.498;2022-11-20T00:17:01;18.80;94.20
25468;DHT22;13384;24.794;110.498;2022-11-20T00:19:32;18.70;94.90
25468;DHT22;13384;24.794;110.498;2022-11-20T00:22:04;18.70;93.70
25468;DHT22;13384;24.794;110.498;2022-11-20T00:24:40;18.70;93.50
25468;DHT22;13384;24.794;110.498;2022-11-20T00:27:12;18.70;95.20
25468;DHT22;13384;24.794;110.498;2022-11-20T00:29:43;18.60;95.10
25468;DHT22;13384;24.794;110.498;2022-11-20T00:32:13;18.60;94.20
25468;DHT22;13384;24.794;110.498;2022-11-20T00:34:44;18.70;94.20
25468;DHT22;13384;24.794;110.498;2022-11-20T00:37:15;18.70;93.90
25468;DHT22;13384;24.794;110.498;2022-11-20T00:40:05;18.70;94.50
25468;DHT22;13384;24.794;110.498;2022-11-20T00:42:56;18.70;94.10
25468;DHT22;13384;24.794;110.498;2022-11-20T00:45:27;18.80;93.60
25468;DHT22;13384;24.794;110.498;2022-11-20T00:47:58;18.80;94.40
25468;DHT22;13384;24.794;110.498;2022-11-20T00:50:32;18.70;94.00
25468;DHT22;13384;24.794;110.498;2022-11-20T00:53:02;18.80;93.50
25468;DHT22;13384;24.794;110.498;2022-11-20T00:55:33;18.80;93.30
25468;DHT22;13384;24.794;110.498;2022-11-20T00:58:04;18.90;93.30
25468;DHT22;13384;24.794;110.498;2022-11-20T01:01:13;18.90;93.50
25468;DHT22;13384;24.794;110.498;2022-11-20T01:03:47;18.90;93.60
25468;DHT22;13384;24.794;110.498;2022-11-20T01:06:19;18.90;93.80
25468;DHT22;13384;24.794;110.498;2022-11-20T01:08:52;18.90;93.60
25468;DHT22;13384;24.794;110.498;2022-11-20T01:11:34;18.90;93.70
25468;DHT22;13384;24.794;110.498;2022-11-20T01:14:12;18.90;93.30
25468;DHT22;13384;24.794;110.498;2022-11-20T01:16:56;18.90;93.20
25468;DHT22;13384;24.794;110.498;2022-11-20T01:19:26;19.00;93.20
25468;DHT22;13384;24.794;110.498;2022-11-20T01:22:10;18.90;93.30
25468;DHT22;13384;24.794;110.498;2022-11-20T01:24:40;18.90;94.50
25468;DHT22;13384;24.794;110.498;2022-11-20T01:27:11;18.90;94.70
25468;DHT22;13384;24.794;110.498;2022-11-20T01:29:41;18.80;94.60
25468;DHT22;13384;24.794;110.498;2022-11-20T01:32:12;18.80;94.60
25468;DHT22;13384;24.794;110.498;2022-11-20T01:34:43;18.80;94.00
25468;DHT22;13384;24.794;110.498;2022-11-20T01:37:16;18.80;93.90
25468;DHT22;13384;24.794;110.498;2022-11-20T01:39:47;18.90;93.40
25468;DHT22;13384;24.794;110.498;2022-11-20T01:42:18;18.90;93.50
25468;DHT22;13384;24.794;110.498;2022-11-20T01:45:50;18.90;93.70
25468;DHT22;13384;24.794;110.498;2022-11-20T01:48:25;18.90;93.80
25468;DHT22;13384;24.794;110.498;2022-11-20T01:50:58;18.90;93.50
25468;DHT22;13384;24.794;110.498;2022-11-20T01:54:02;18.90;94.00
25468;DHT22;13384;24.794;110.498;2022-11-20T01:57:00;18.90;94.70
25468;DHT22;13384;24.794;110.498;2022-11-20T01:59:31;18.90;93.80
25468;DHT22;13384;24.794;110.498;2022-11-20T02:02:01;18.80;94.90
25468;DHT22;13384;24.794;110.498;2022-11-20T02:04:52;18.80;93.50
25468;DHT22;13384;24.794;110.498;2022-11-20T02:07:24;18.90;93.40
25468;DHT22;13384;24.794;110.498;2022-11-20T02:09:55;18.90;93.40
25468;DHT22;13384;24.794;110.498;2022-11-20T02:12:26;18.90;93.90
25468;DHT22;13384;24.794;110.498;2022-11-20T02:15:15;18.90;93.60
25468;DHT22;13384;24.794;110.498;2022-11-20T02:17:46;18.90;93.80
25468;DHT22;13384;24.794;110.498;2022-11-20T02:20:17;18.90;93.40
25468;DHT22;13384;24.794;110.498;2022-11-20T02:22:58;18.90;93.20
25468;DHT22;13384;24.794;110.498;2022-11-20T02:25:33;18.90;93.40
25468;DHT22;13384;24.794;110.498;2022-11-20T02:28:06;18.90;93.80
25468;DHT22;13384;24.794;110.498;2022-11-20T02:30:37;18.90;93.40
25468;DHT22;13384;24.794;110.498;2022-11-20T02:33:07;18.90;93.40
25468;DHT22;13384;24.794;110.498;2022-11-20T02:35:45;18.90;93.70
25468;DHT22;13384;24.794;110.498;2022-11-20T02:38:16;18.90;93.30
25468;DHT22;13384;24.794;110.498;2022-11-20T02:40:59;18.90;93.20
25468;DHT22;13384;24.794;110.498;2022-11-20T02:43:30;18.90;93.20
25468;DHT22;13384;24.794;110.498;2022-11-20T02:46:01;18.90;93.10
25468;DHT22;13384;24.794;110.498;2022-11-20T02:48:31;18.90;93.90
25468;DHT22;13384;24.794;110.498;2022-11-20T02:51:02;18.90;93.20
25468;DHT22;13384;24.794;110.498;2022-11-20T02:53:32;18.90;93.90
25468;DHT22;13384;24.794;110.498;2022-11-20T02:56:05;19.00;93.20
25468;DHT22;13384;24.794;110.498;2022-11-20T02:58:37;18.90;93.50
25468;DHT22;13384;24.794;110.498;2022-11-20T03:01:08;19.00;93.80
25468;DHT22;13384;24.794;110.498;2022-11-20T03:03:39;19.00;93.60
25468;DHT22;13384;24.794;110.498;2022-11-20T03:06:10;19.00;93.30
25468;DHT22;13384;24.794;110.498;2022-11-20T03:08:42;19.00;93.70
25468;DHT22;13384;24.794;110.498;2022-11-20T03:11:30;19.00;93.60
25468;DHT22;13384;24.794;110.498;2022-11-20T03:14:04;19.00;94.30
25468;DHT22;13384;24.794;110.498;2022-11-20T03:16:36;19.00;93.10
25468;DHT22;13384;24.794;110.498;2022-11-20T03:19:22;19.00;93.10
25468;DHT22;13384;24.794;110.498;2022-11-20T03:22:12;19.00;92.90
25468;DHT22;13384;24.794;110.498;2022-11-20T03:25:04;19.10;92.90
25468;DHT22;13384;24.794;110.498;2022-11-20T03:27:57;19.00;93.20
25468;DHT22;13384;24.794;110.498;2022-11-20T03:30:27;19.00;93.20
25468;DHT22;13384;24.794;110.498;2022-11-20T03:32:58;19.00;93.00
25468;DHT22;13384;24.794;110.498;2022-11-20T03:35:49;19.00;93.70
25468;DHT22;13384;24.794;110.498;2022-11-20T03:38:20;19.00;93.10
25468;DHT22;13384;24.794;110.498;2022-11-20T03:41:13;19.00;93.00
25468;DHT22;13384;24.794;110.498;2022-11-20T03:43:57;19.00;93.40
25468;DHT22;13384;24.794;110.498;2022-11-20T03:46:29;19.00;93.80
25468;DHT22;13384;24.794;110.498;2022-11-20T03:49:00;19.00;93.40
25468;DHT22;13384;24.794;110.498;2022-11-20T03:51:50;19.00;93.30
25468;DHT22;13384;24.794;110.498;2022-11-20T03:54:22;19.00;93.10
25468;DHT22;13384;24.794;110.498;2022-11-20T03:56:52;19.00;92.80
25468;DHT22;13384;24.794;110.498;2022-11-20T03:59:23;19.10;92.80
25468;DHT22;13384;24.794;110.498;2022-11-20T04:01:59;19.00;92.80
25468;DHT22;13384;24.794;110.498;2022-11-20T04:04:30;19.00;92.70
25468;DHT22;13384;24.794;110.498;2022-11-20T04:07:00;19.00;92.70
25468;DHT22;13384;24.794;110.498;2022-11-20T04:09:35;19.00;92.70
25468;DHT22;13384;24.794;110.498;2022-11-20T04:12:05;19.00;92.60
25468;DHT22;13384;24.794;110.498;2022-11-20T04:14:36;19.00;92.60
25468;DHT22;13384;24.794;110.498;2022-11-20T04:17:07;19.00;92.50
25468;DHT22;13384;24.794;110.498;2022-11-20T04:19:38;19.10;92.60
25468;DHT22;13384;24.794;110.498;2022-11-20T04:22:08;19.10;92.60
25468;DHT22;13384;24.794;110.498;2022-11-20T04:24:41;19.10;92.60
25468;DHT22;13384;24.794;110.498;2022-11-20T04:27:12;19.00;93.00
25468;DHT22;13384;24.794;110.498;2022-11-20T04:29:43;19.00;92.60
25468;DHT22;13384;24.794;110.498;2022-11-20T04:32:13;19.10;92.60
25468;DHT22;13384;24.794;110.498;2022-11-20T04:34:44;19.00;92.50
25468;DHT22;13384;24.794;110.498;2022-11-20T04:37:15;19.00;92.50
25468;DHT22;13384;24.794;110.498;2022-11-20T04:39:46;19.00;92.70
25468;DHT22;13384;24.794;110.498;2022-11-20T04:42:16;19.00;93.20
25468;DHT22;13384;24.794;110.498;2022-11-20T04:44:59;19.00;92.70
25468;DHT22;13384;24.794;110.498;2022-11-20T04:47:30;19.00;93.40
25468;DHT22;13384;24.794;110.498;2022-11-20T04:50:01;19.00;93.00
25468;DHT22;13384;24.794;110.498;2022-11-20T04:52:31;19.00;93.10
25468;DHT22;13384;24.794;110.498;2022-11-20T04:55:02;19.00;93.00
25468;DHT22;13384;24.794;110.498;2022-11-20T04:57:34;19.10;93.40
25468;DHT22;13384;24.794;110.498;2022-11-20T05:00:05;19.00;93.20
25468;DHT22;13384;24.794;110.498;2022-11-20T05:02:41;19.10;93.00
25468;DHT22;13384;24.794;110.498;2022-11-20T05:05:12;19.00;92.70
25468;DHT22;13384;24.794;110.498;2022-11-20T05:07:42;19.00;92.70
25468;DHT22;13384;24.794;110.498;2022-11-20T05:10:13;19.00;92.50
25468;DHT22;13384;24.794;110.498;2022-11-20T05:12:45;19.10;92.50
25468;DHT22;13384;24.794;110.498;2022-11-20T05:15:18;19.00;92.60
25468;DHT22;13384;24.794;110.498;2022-11-20T05:17:50;19.10;93.00
25468;DHT22;13384;24.794;110.498;2022-11-20T05:20:20;19.00;93.70
25468;DHT22;13384;24.794;110.498;2022-11-20T05:22:59;19.00;92.70
25468;DHT22;13384;24.794;110.498;2022-11-20T05:25:29;19.00;93.70
25468;DHT22;13384;24.794;110.498;2022-11-20T05:28:00;19.00;92.90
25468;DHT22;13384;24.794;110.498;2022-11-20T05:30:31;19.00;93.60
25468;DHT22;13384;24.794;110.498;2022-11-20T05:33:03;19.00;93.90
25468;DHT22;13384;24.794;110.498;2022-11-20T05:35:35;19.00;93.20
25468;DHT22;13384;24.794;110.498;2022-11-20T05:38:05;19.00;93.70
25468;DHT22;13384;24.794;110.498;2022-11-20T05:40:38;19.00;93.50
25468;DHT22;13384;24.794;110.498;2022-11-20T05:43:13;19.00;92.80
25468;DHT22;13384;24.794;110.498;2022-11-20T05:45:58;19.00;93.00
25468;DHT22;13384;24.794;110.498;2022-11-20T05:48:57;19.00;93.30
25468;DHT22;13384;24.794;110.498;2022-11-20T05:51:32;19.00;93.00
25468;DHT22;13384;24.794;110.498;2022-11-20T05:54:04;19.00;92.70
25468;DHT22;13384;24.794;110.498;2022-11-20T05:56:38;19.10;92.60
25468;DHT22;13384;24.794;110.498;2022-11-20T05:59:08;19.10;92.60
25468;DHT22;13384;24.794;110.498;2022-11-20T06:01:39;19.10;92.50
25468;DHT22;13384;24.794;110.498;2022-11-20T06:04:10;19.10;92.40
25468;DHT22;13384;24.794;110.498;2022-11-20T06:06:53;19.10;92.40
25468;DHT22;13384;24.794;110.498;2022-11-20T06:09:44;19.10;92.30
25468;DHT22;13384;24.794;110.498;2022-11-20T06:12:18;19.20;92.40
25468;DHT22;13384;24.794;110.498;2022-11-20T06:14:48;19.10;92.70
25468;DHT22;13384;24.794;110.498;2022-11-20T06:17:22;19.10;92.30
25468;DHT22;13384;24.794;110.498;2022-11-20T06:19:53;19.10;92.30
25468;DHT22;13384;24.794;110.498;2022-11-20T06:22:27;19.10;92.30
25468;DHT22;13384;24.794;110.498;2022-11-20T06:25:03;19.10;92.90
25468;DHT22;13384;24.794;110.498;2022-11-20T06:27:34;19.10;92.40
25468;DHT22;13384;24.794;110.498;2022-11-20T06:30:05;19.10;92.80
25468;DHT22;13384;24.794;110.498;2022-11-20T06:32:36;19.10;93.00
25468;DHT22;13384;24.794;110.498;2022-11-20T06:35:07;19.10;93.00
25468;DHT22;13384;24.794;110.498;2022-11-20T06:37:39;19.10;92.40
25468;DHT22;13384;24.794;110.498;2022-11-20T06:40:11;19.20;93.20
25468;DHT22;13384;24.794;110.498;2022-11-20T06:42:42;19.20;94.30
25468;DHT22;13384;24.794;110.498;2022-11-20T06:45:13;19.10;92.70
25468;DHT22;13384;24.794;110.498;2022-11-20T06:47:44;19.20;93.40
25468;DHT22;13384;24.794;110.498;2022-11-20T06:50:14;19.20;93.20
25468;DHT22;13384;24.794;110.498;2022-11-20T06:53:07;19.20;93.50
25468;DHT22;13384;24.794;110.498;2022-11-20T06:55:43;19.10;92.80
25468;DHT22;13384;24.794;110.498;2022-11-20T06:58:36;19.20;92.60
25468;DHT22;13384;24.794;110.498;2022-11-20T07:01:10;19.10;92.70
25468;DHT22;13384;24.794;110.498;2022-11-20T07:03:40;19.20;93.10
25468;DHT22;13384;24.794;110.498;2022-11-20T07:06:11;19.10;92.50
25468;DHT22;13384;24.794;110.498;2022-11-20T07:08:42;19.10;92.50
25468;DHT22;13384;24.794;110.498;2022-11-20T07:11:13;19.20;92.80
25468;DHT22;13384;24.794;110.498;2022-11-20T07:13:52;19.10;92.70
25468;DHT22;13384;24.794;110.498;2022-11-20T07:16:23;19.20;92.50
25468;DHT22;13384;24.794;110.498;2022-11-20T07:18:55;19.20;92.90
25468;DHT22;13384;24.794;110.498;2022-11-20T07:21:25;19.10;92.80
25468;DHT22;13384;24.794;110.498;2022-11-20T07:23:56;19.10;92.60
25468;DHT22;13384;24.794;110.498;2022-11-20T07:26:28;19.10;93.00
25468;DHT22;13384;24.794;110.498;2022-11-20T07:28:59;19.10;93.10
25468;DHT22;13384;24.794;110.498;2022-11-20T07:31:50;19.10;92.80
25468;DHT22;13384;24.794;110.498;2022-11-20T07:34:21;19.10;92.70
25468;DHT22;13384;24.794;110.498;2022-11-20T07:37:11;19.10;92.50
25468;DHT22;13384;24.794;110.498;2022-11-20T07:39:42;19.10;93.00
25468;DHT22;13384;24.794;110.498;2022-11-20T07:42:15;19.10;92.80
25468;DHT22;13384;24.794;110.498;2022-11-20T07:44:50;19.10;92.80
25468;DHT22;13384;24.794;110.498;2022-11-20T07:47:21;19.10;92.50
25468;DHT22;13384;24.794;110.498;2022-11-20T07:49:53;19.10;92.80
25468;DHT22;13384;24.794;110.498;2022-11-20T07:52:36;19.10;92.80
25468;DHT22;13384;24.794;110.498;2022-11-20T07:55:09;19.10;92.70
25468;DHT22;13384;24.794;110.498;2022-11-20T07:57:42;19.10;92.60
25468;DHT22;13384;24.794;110.498;2022-11-20T08:00:15;19.10;92.40
25468;DHT22;13384;24.794;110.498;2022-11-20T08:02:46;19.10;93.40
25468;DHT22;13384;24.794;110.498;2022-11-20T08:05:19;19.10;92.70
25468;DHT22;13384;24.794;110.498;2022-11-20T08:07:49;19.10;92.50
25468;DHT22;13384;24.794;110.498;2022-11-20T08:11:02;19.10;92.70
25468;DHT22;13384;24.794;110.498;2022-11-20T08:13:51;19.10;92.90
25468;DHT22;13384;24.794;110.498;2022-11-20T08:16:43;19.10;92.60
25468;DHT22;13384;24.794;110.498;2022-11-20T08:19:16;19.10;92.70
25468;DHT22;13384;24.794;110.498;2022-11-20T08:21:48;19.10;92.70
25468;DHT22;13384;24.794;110.498;2022-11-20T08:24:19;19.10;92.40
25468;DHT22;13384;24.794;110.498;2022-11-20T08:27:14;19.10;92.30
25468;DHT22;13384;24.794;110.498;2022-11-20T08:29:44;19.10;92.50
25468;DHT22;13384;24.794;110.498;2022-11-20T08:32:15;19.10;92.80
25468;DHT22;13384;24.794;110.498;2022-11-20T08:34:46;19.20;92.30
25468;DHT22;13384;24.794;110.498;2022-11-20T08:37:17;19.10;92.30
25468;DHT22;13384;24.794;110.498;2022-11-20T08:39:49;19.10;92.20
25468;DHT22;13384;24.794;110.498;2022-11-20T08:42:21;19.10;92.20
25468;DHT22;13384;24.794;110.498;2022-11-20T08:45:11;19.10;92.10
25468;DHT22;13384;24.794;110.498;2022-11-20T08:48:00;19.10;92.10
25468;DHT22;13384;24.794;110.498;2022-11-20T08:50:32;19.10;92.10
25468;DHT22;13384;24.794;110.498;2022-11-20T08:53:04;19.10;92.10
25468;DHT22;13384;24.794;110.498;2022-11-20T08:55:36;19.20;92.10
25468;DHT22;13384;24.794;110.498;2022-11-20T08:58:10;19.10;92.10
25468;DHT22;13384;24.794;110.498;2022-11-20T09:00:43;19.10;92.10
25468;DHT22;13384;24.794;110.498;2022-11-20T09:03:16;19.10;92.00
25468;DHT22;13384;24.794;110.498;2022-11-20T09:05:57;19.10;92.00
25468;DHT22;13384;24.794;110.498;2022-11-20T09:08:29;19.10;92.00
25468;DHT22;13384;24.794;110.498;2022-11-20T09:11:00;19.10;91.90
25468;DHT22;13384;24.794;110.498;2022-11-20T09:13:31;19.10;91.90
25468;DHT22;13384;24.794;110.498;2022-11-20T09:16:05;19.10;92.00
25468;DHT22;13384;24.794;110.498;2022-11-20T09:18:37;19.10;92.00
25468;DHT22;13384;24.794;110.498;2022-11-20T09:21:13;19.20;92.00
25468;DHT22;13384;24.794;110.498;2022-11-20T09:23:44;19.20;92.00
25468;DHT22;13384;24.794;110.498;2022-11-20T09:26:29;19.20;92.00
25468;DHT22;13384;24.794;110.498;2022-11-20T09:29:00;19.10;91.90
25468;DHT22;13384;24.794;110.498;2022-11-20T09:31:30;19.10;92.00
25468;DHT22;13384;24.794;110.498;2022-11-20T09:34:01;19.10;92.20
25468;DHT22;13384;24.794;110.498;2022-11-20T09:36:31;19.10;92.00
25468;DHT22;13384;24.794;110.498;2022-11-20T09:39:05;19.10;92.10
25468;DHT22;13384;24.794;110.498;2022-11-20T09:45:00;19.20;92.20
25468;DHT22;13384;24.794;110.498;2022-11-20T09:56:40;19.10;92.00
25468;DHT22;13384;24.794;110.498;2022-11-20T09:59:45;19.20;92.00
25468;DHT22;13384;24.794;110.498;2022-11-20T10:08:21;19.10;92.00
25468;DHT22;13384;24.794;110.498;2022-11-20T10:11:33;19.10;91.90
25468;DHT22;13384;24.794;110.498;2022-11-20T10:25:47;19.10;91.90
25468;DHT22;13384;24.794;110.498;2022-11-20T10:31:13;19.10;91.90
25468;DHT22;13384;24.794;110.498;2022-11-20T10:33:46;19.20;91.90
25468;DHT22;13384;24.794;110.498;2022-11-20T10:36:49;19.10;91.80
25468;DHT22;13384;24.794;110.498;2022-11-20T10:39:34;19.20;91.80
25468;DHT22;13384;24.794;110.498;2022-11-20T10:42:12;19.10;91.80
25468;DHT22;13384;24.794;110.498;2022-11-20T10:44:55;19.10;91.80
25468;DHT22;13384;24.794;110.498;2022-11-20T10:47:34;19.10;92.00
25468;DHT22;13384;24.794;110.498;2022-11-20T10:50:11;19.10;92.10
25468;DHT22;13384;24.794;110.498;2022-11-20T10:53:00;19.10;91.90
25468;DHT22;13384;24.794;110.498;2022-11-20T10:55:45;19.10;92.00
25468;DHT22;13384;24.794;110.498;2022-11-20T11:01:19;19.10;92.00
25468;DHT22;13384;24.794;110.498;2022-11-20T11:03:54;19.10;92.00
25468;DHT22;13384;24.794;110.498;2022-11-20T11:06:40;19.20;92.10
25468;DHT22;13384;24.794;110.498;2022-11-20T11:09:20;19.10;92.10
25468;DHT22;13384;24.794;110.498;2022-11-20T11:11:52;19.20;92.00
25468;DHT22;13384;24.794;110.498;2022-11-20T11:14:24;19.10;92.00
25468;DHT22;13384;24.794;110.498;2022-11-20T11:16:57;19.10;92.00
25468;DHT22;13384;24.794;110.498;2022-11-20T11:19:28;19.10;92.10
25468;DHT22;13384;24.794;110.498;2022-11-20T11:21:58;19.10;92.40
25468;DHT22;13384;24.794;110.498;2022-11-20T11:24:30;19.10;92.00
25468;DHT22;13384;24.794;110.498;2022-11-20T11:27:15;19.10;92.10
25468;DHT22;13384;24.794;110.498;2022-11-20T11:30:19;19.10;92.10
25468;DHT22;13384;24.794;110.498;2022-11-20T11:32:50;19.10;92.20
25468;DHT22;13384;24.794;110.498;2022-11-20T11:35:23;19.10;92.30
25468;DHT22;13384;24.794;110.498;2022-11-20T11:38:06;19.10;92.00
25468;DHT22;13384;24.794;110.498;2022-11-20T11:40:44;19.10;92.50
25468;DHT22;13384;24.794;110.498;2022-11-20T11:43:34;19.10;92.10
25468;DHT22;13384;24.794;110.498;2022-11-20T11:48:59;19.10;92.30
25468;DHT22;13384;24.794;110.498;2022-11-20T11:54:26;19.10;92.10
25468;DHT22;13384;24.794;110.498;2022-11-20T11:57:12;19.10;92.10
25468;DHT22;13384;24.794;110.498;2022-11-20T12:05:24;19.20;92.20
25468;DHT22;13384;24.794;110.498;2022-11-20T12:08:25;19.10;92.30
25468;DHT22;13384;24.794;110.498;2022-11-20T12:16:19;19.10;92.60
25468;DHT22;13384;24.794;110.498;2022-11-20T12:18:51;19.10;92.40
25468;DHT22;13384;24.794;110.498;2022-11-20T12:32:31;19.10;92.30
25468;DHT22;13384;24.794;110.498;2022-11-20T12:35:38;19.10;92.20
25468;DHT22;13384;24.794;110.498;2022-11-20T12:57:03;19.10;92.10
25468;DHT22;13384;24.794;110.498;2022-11-20T13:06:19;19.10;92.00
25468;DHT22;13384;24.794;110.498;2022-11-20T13:08:55;19.20;92.10
25468;DHT22;13384;24.794;110.498;2022-11-20T13:14:37;19.20;92.20
25468;DHT22;13384;24.794;110.498;2022-11-20T13:19:56;19.10;92.10
25468;DHT22;13384;24.794;110.498;2022-11-20T13:22:49;19.10;92.10
25468;DHT22;13384;24.794;110.498;2022-11-20T13:25:40;19.20;92.10
25468;DHT22;13384;24.794;110.498;2022-11-20T13:30:54;19.20;92.10
25468;DHT22;13384;24.794;110.498;2022-11-20T13:33:33;19.10;92.10
25468;DHT22;13384;24.794;110.498;2022-11-20T13:36:19;19.10;92.00
25468;DHT22;13384;24.794;110.498;2022-11-20T13:38:53;19.20;92.10
25468;DHT22;13384;24.794;110.498;2022-11-20T13:41:32;19.20;92.00
25468;DHT22;13384;24.794;110.498;2022-11-20T13:44:22;19.10;92.00
25468;DHT22;13384;24.794;110.498;2022-11-20T13:47:36;19.20;92.00
25468;DHT22;13384;24.794;110.498;2022-11-20T13:50:09;19.20;92.00
25468;DHT22;13384;24.794;110.498;2022-11-20T13:53:00;19.10;92.00
25468;DHT22;13384;24.794;110.498;2022-11-20T13:55:47;19.10;92.00
25468;DHT22;13384;24.794;110.498;2022-11-20T14:01:21;19.10;92.20
25468;DHT22;13384;24.794;110.498;2022-11-20T14:03:56;19.10;92.10
25468;DHT22;13384;24.794;110.498;2022-11-20T14:06:41;19.10;92.10
25468;DHT22;13384;24.794;110.498;2022-11-20T14:09:29;19.10;92.10
25468;DHT22;13384;24.794;110.498;2022-11-20T14:12:12;19.10;92.10
25468;DHT22;13384;24.794;110.498;2022-11-20T14:15:34;19.10;92.10
25468;DHT22;13384;24.794;110.498;2022-11-20T14:18:20;19.10;92.10
25468;DHT22;13384;24.794;110.498;2022-11-20T14:20:51;19.20;92.10
25468;DHT22;13384;24.794;110.498;2022-11-20T14:23:29;19.10;92.10
25468;DHT22;13384;24.794;110.498;2022-11-20T14:26:19;19.10;92.10
25468;DHT22;13384;24.794;110.498;2022-11-20T14:28:51;19.10;92.10
25468;DHT22;13384;24.794;110.498;2022-11-20T14:31:25;19.10;92.00
25468;DHT22;13384;24.794;110.498;2022-11-20T14:33:57;19.10;92.10
25468;DHT22;13384;24.794;110.498;2022-11-20T14:36:29;19.10;92.10
25468;DHT22;13384;24.794;110.498;2022-11-20T14:39:03;19.10;92.50
25468;DHT22;13384;24.794;110.498;2022-11-20T14:41:34;19.10;92.10
25468;DHT22;13384;24.794;110.498;2022-11-20T14:44:04;19.10;92.10
25468;DHT22;13384;24.794;110.498;2022-11-20T14:46:43;19.10;92.10
25468;DHT22;13384;24.794;110.498;2022-11-20T14:49:15;19.10;92.10
25468;DHT22;13384;24.794;110.498;2022-11-20T14:51:45;19.10;92.10
25468;DHT22;13384;24.794;110.498;2022-11-20T14:54:18;19.10;92.10
25468;DHT22;13384;24.794;110.498;2022-11-20T14:57:03;19.10;92.10
25468;DHT22;13384;24.794;110.498;2022-11-20T15:02:51;19.10;92.20
25468;DHT22;13384;24.794;110.498;2022-11-20T15:05:25;19.10;92.20
25468;DHT22;13384;24.794;110.498;2022-11-20T15:08:09;19.10;92.20
25468;DHT22;13384;24.794;110.498;2022-11-20T15:10:49;19.10;92.20
25468;DHT22;13384;24.794;110.498;2022-11-20T15:13:37;19.10;92.20
25468;DHT22;13384;24.794;110.498;2022-11-20T15:16:19;19.10;92.20
25468;DHT22;13384;24.794;110.498;2022-11-20T15:18:52;19.10;92.10
25468;DHT22;13384;24.794;110.498;2022-11-20T15:21:23;19.10;92.20
25468;DHT22;13384;24.794;110.498;2022-11-20T15:23:57;19.10;92.10
25468;DHT22;13384;24.794;110.498;2022-11-20T15:26:29;19.10;92.10
25468;DHT22;13384;24.794;110.498;2022-11-20T15:29:01;19.10;92.10
25468;DHT22;13384;24.794;110.498;2022-11-20T15:31:32;19.10;92.10
25468;DHT22;13384;24.794;110.498;2022-11-20T15:34:24;19.10;92.10
25468;DHT22;13384;24.794;110.498;2022-11-20T15:37:08;19.10;92.20
25468;DHT22;13384;24.794;110.498;2022-11-20T15:39:48;19.10;92.30
25468;DHT22;13384;24.794;110.498;2022-11-20T15:42:20;19.10;92.20
25468;DHT22;13384;24.794;110.498;2022-11-20T15:44:50;19.10;92.20
25468;DHT22;13384;24.794;110.498;2022-11-20T15:47:33;19.10;92.10
25468;DHT22;13384;24.794;110.498;2022-11-20T15:50:14;19.10;92.10
25468;DHT22;13384;24.794;110.498;2022-11-20T15:52:47;19.10;92.10
25468;DHT22;13384;24.794;110.498;2022-11-20T15:55:18;19.10;92.10
25468;DHT22;13384;24.794;110.498;2022-11-20T15:58:12;19.10;92.10
25468;DHT22;13384;24.794;110.498;2022-11-20T16:00:44;19.10;92.10
25468;DHT22;13384;24.794;110.498;2022-11-20T16:03:16;19.10;92.20
25468;DHT22;13384;24.794;110.498;2022-11-20T16:05:48;19.10;92.10
25468;DHT22;13384;24.794;110.498;2022-11-20T16:08:19;19.10;92.10
25468;DHT22;13384;24.794;110.498;2022-11-20T16:10:52;19.10;92.10
25468;DHT22;13384;24.794;110.498;2022-11-20T16:13:23;19.10;92.10
25468;DHT22;13384;24.794;110.498;2022-11-20T16:16:33;19.10;92.20
25468;DHT22;13384;24.794;110.498;2022-11-20T16:19:04;19.10;92.20
25468;DHT22;13384;24.794;110.498;2022-11-20T16:21:34;19.00;92.20
25468;DHT22;13384;24.794;110.498;2022-11-20T16:24:08;19.10;92.20
25468;DHT22;13384;24.794;110.498;2022-11-20T16:26:40;19.10;92.20
25468;DHT22;13384;24.794;110.498;2022-11-20T16:29:12;19.10;92.20
25468;DHT22;13384;24.794;110.498;2022-11-20T16:31:45;19.10;92.10
25468;DHT22;13384;24.794;110.498;2022-11-20T16:34:35;19.10;92.10
25468;DHT22;13384;24.794;110.498;2022-11-20T16:37:06;19.10;92.10
25468;DHT22;13384;24.794;110.498;2022-11-20T16:39:37;19.10;92.20
25468;DHT22;13384;24.794;110.498;2022-11-20T16:42:11;19.00;92.10
25468;DHT22;13384;24.794;110.498;2022-11-20T16:44:45;19.10;92.20
25468;DHT22;13384;24.794;110.498;2022-11-20T16:47:17;19.10;92.10
25468;DHT22;13384;24.794;110.498;2022-11-20T16:49:48;19.10;92.10
25468;DHT22;13384;24.794;110.498;2022-11-20T16:52:18;19.10;92.10
25468;DHT22;13384;24.794;110.498;2022-11-20T16:54:48;19.10;92.10
25468;DHT22;13384;24.794;110.498;2022-11-20T16:57:19;19.10;92.10
25468;DHT22;13384;24.794;110.498;2022-11-20T16:59:50;19.10;92.10
25468;DHT22;13384;24.794;110.498;2022-11-20T17:02:29;19.10;92.10
25468;DHT22;13384;24.794;110.498;2022-11-20T17:05:00;19.00;92.10
25468;DHT22;13384;24.794;110.498;2022-11-20T17:07:34;19.00;92.10
25468;DHT22;13384;24.794;110.498;2022-11-20T17:10:05;19.00;92.10
25468;DHT22;13384;24.794;110.498;2022-11-20T17:12:43;19.10;92.10
25468;DHT22;13384;24.794;110.498;2022-11-20T17:15:15;19.00;92.10
25468;DHT22;13384;24.794;110.498;2022-11-20T17:17:46;19.00;92.10
25468;DHT22;13384;24.794;110.498;2022-11-20T17:20:18;19.10;92.10
25468;DHT22;13384;24.794;110.498;2022-11-20T17:22:50;19.00;92.40
25468;DHT22;13384;24.794;110.498;2022-11-20T17:25:21;19.00;92.20
25468;DHT22;13384;24.794;110.498;2022-11-20T17:27:52;19.00;92.20
25468;DHT22;13384;24.794;110.498;2022-11-20T17:30:23;19.00;92.20
25468;DHT22;13384;24.794;110.498;2022-11-20T17:32:53;19.00;92.10
25468;DHT22;13384;24.794;110.498;2022-11-20T17:35:24;19.00;92.10
25468;DHT22;13384;24.794;110.498;2022-11-20T17:37:55;19.00;92.20
25468;DHT22;13384;24.794;110.498;2022-11-20T17:40:27;19.00;92.30
25468;DHT22;13384;24.794;110.498;2022-11-20T17:43:11;19.00;92.20